Time;durP1;ratioP1;P1;durP2;ratioP2;P2;SDS_P1;SDS_P2;PMS_P1;PMS_P2;Temp;Humidity;BMP_temperature;BMP_pressure;BME280_temperature;BME280_humidity;BME280_pressure;Samples;Min_cycle;Max_cycle;Signal;HPM_P1;HPM_P2
2023/12/11 00:01:09;;;;;;;36.33;5.13;;;10.20;99.90;;;;;;5029585;28;20098;-52
2023/12/11 00:03:34;;;;;;;31.23;4.80;;;9.80;99.90;;;;;;5031249;28;20045;-52
2023/12/11 00:06:00;;;;;;;37.50;4.93;;;9.90;99.90;;;;;;5030781;28;20621;-50
2023/12/11 00:08:26;;;;;;;44.88;5.35;;;9.90;99.90;;;;;;5029868;28;20107;-56
2023/12/11 00:10:51;;;;;;;33.85;4.80;;;10.20;99.90;;;;;;5031085;28;20041;-53
2023/12/11 00:13:17;;;;;;;33.30;5.05;;;10.10;99.90;;;;;;5030968;28;20401;-51
2023/12/11 00:15:43;;;;;;;30.80;4.40;;;9.90;99.90;;;;;;5030193;28;20092;-53
2023/12/11 00:18:09;;;;;;;34.88;5.13;;;9.90;99.90;;;;;;5030428;28;20049;-53
2023/12/11 00:20:34;;;;;;;31.17;4.18;;;10.20;99.90;;;;;;5029540;28;20033;-54
2023/12/11 00:23:00;;;;;;;39.92;5.18;;;9.90;99.90;;;;;;5030402;28;20045;-54
2023/12/11 00:25:28;;;;;;;39.03;5.53;;;9.80;99.90;;;;;;5031225;28;20102;-51
2023/12/11 00:27:54;;;;;;;42.40;4.88;;;10.10;99.90;;;;;;5030582;28;20092;-49
2023/12/11 00:30:20;;;;;;;31.15;6.93;;;9.90;99.90;;;;;;5031007;28;20041;-52
2023/12/11 00:32:46;;;;;;;29.08;3.60;;;10.10;99.90;;;;;;5030858;28;20478;-54
2023/12/11 00:35:11;;;;;;;35.75;4.53;;;10.30;99.90;;;;;;5029539;28;20034;-56
2023/12/11 00:37:37;;;;;;;30.85;4.57;;;10.20;99.90;;;;;;5030634;28;20397;-53
2023/12/11 00:40:04;;;;;;;39.03;4.57;;;10.00;99.90;;;;;;5030276;28;20389;-52
2023/12/11 00:42:29;;;;;;;35.20;4.45;;;10.20;99.90;;;;;;5030879;28;20041;-50
2023/12/11 00:44:55;;;;;;;42.28;7.03;;;9.90;99.90;;;;;;5030408;28;20417;-53
2023/12/11 00:47:21;;;;;;;35.30;3.65;;;10.10;99.90;;;;;;5030586;28;20112;-52
2023/12/11 00:49:47;;;;;;;31.73;4.22;;;9.60;99.90;;;;;;5029194;28;20077;-52
2023/12/11 00:52:13;;;;;;;39.58;6.13;;;9.60;99.90;;;;;;5028889;28;20045;-53
2023/12/11 00:54:38;;;;;;;30.85;4.95;;;9.50;99.90;;;;;;5030775;28;20068;-51
2023/12/11 00:57:04;;;;;;;35.55;4.78;;;9.40;99.90;;;;;;5030682;28;20071;-54
2023/12/11 00:59:30;;;;;;;37.75;4.53;;;9.40;99.90;;;;;;5030647;28;20124;-53
2023/12/11 01:01:55;;;;;;;35.92;5.28;;;9.80;99.90;;;;;;5030342;28;20042;-51
2023/12/11 01:04:21;;;;;;;42.55;4.47;;;9.70;99.90;;;;;;5030371;28;20488;-53
2023/12/11 01:06:47;;;;;;;31.23;4.45;;;9.30;99.90;;;;;;5030337;28;20033;-55
2023/12/11 01:09:13;;;;;;;35.22;4.30;;;9.60;99.90;;;;;;5030840;28;20429;-52
2023/12/11 01:11:39;;;;;;;29.42;4.05;;;9.20;99.90;;;;;;5030678;28;20044;-52
2023/12/11 01:14:05;;;;;;;45.17;4.50;;;9.30;99.90;;;;;;5030362;28;20077;-53
2023/12/11 01:16:30;;;;;;;41.58;5.45;;;9.40;99.90;;;;;;5029855;28;20069;-53
2023/12/11 01:18:56;;;;;;;35.88;4.43;;;9.20;99.90;;;;;;5029296;28;20460;-51
2023/12/11 01:21:22;;;;;;;34.33;5.88;;;9.60;99.90;;;;;;5029835;28;20112;-51
2023/12/11 01:23:47;;;;;;;48.13;5.45;;;9.80;99.90;;;;;;5030308;28;20124;-53
2023/12/11 01:26:13;;;;;;;39.15;4.82;;;9.80;99.90;;;;;;5029866;28;20488;-52
2023/12/11 01:28:39;;;;;;;38.80;4.65;;;9.80;99.90;;;;;;5030350;28;20037;-52
2023/12/11 01:31:05;;;;;;;41.70;5.50;;;9.60;99.90;;;;;;5032946;28;20040;-54
2023/12/11 01:33:31;;;;;;;35.22;5.32;;;9.70;99.90;;;;;;5033630;28;20100;-49
2023/12/11 01:35:57;;;;;;;45.50;5.88;;;9.60;99.90;;;;;;5033491;28;20041;-52
2023/12/11 01:38:23;;;;;;;49.42;6.22;;;9.90;99.90;;;;;;5033896;28;20037;-53
2023/12/11 01:40:48;;;;;;;49.85;6.20;;;9.90;99.90;;;;;;5032423;28;20473;-53
2023/12/11 01:43:17;;;;;;;40.95;5.00;;;9.90;99.90;;;;;;5033464;28;20045;-52
2023/12/11 01:45:44;;;;;;;50.97;6.15;;;9.40;99.90;;;;;;5032812;28;20037;-53
2023/12/11 01:48:10;;;;;;;43.22;6.10;;;10.10;99.90;;;;;;5033715;28;20041;-53
2023/12/11 01:50:38;;;;;;;52.05;6.57;;;10.00;99.90;;;;;;5033179;28;20118;-55
2023/12/11 01:53:04;;;;;;;42.83;6.40;;;9.50;99.90;;;;;;5031096;28;20057;-51
2023/12/11 01:55:32;;;;;;;46.22;7.10;;;10.10;99.90;;;;;;5033536;28;20064;-53
2023/12/11 01:57:58;;;;;;;41.42;5.55;;;9.80;99.90;;;;;;5033353;28;20087;-54
2023/12/11 02:00:24;;;;;;;60.50;7.40;;;10.20;99.90;;;;;;5033467;28;20515;-53
2023/12/11 02:02:50;;;;;;;46.15;5.88;;;9.60;99.90;;;;;;5032770;28;20120;-52
2023/12/11 02:05:17;;;;;;;48.75;6.95;;;9.70;99.90;;;;;;5033141;28;20563;-53
2023/12/11 02:07:43;;;;;;;43.47;6.32;;;9.60;99.90;;;;;;5033311;28;20049;-55
2023/12/11 02:10:09;;;;;;;60.50;6.45;;;9.80;99.90;;;;;;5032884;28;20037;-51
2023/12/11 02:12:35;;;;;;;51.85;6.53;;;9.70;99.90;;;;;;5033736;28;20465;-52
2023/12/11 02:15:01;;;;;;;57.38;8.30;;;9.70;99.90;;;;;;5032605;28;20052;-48
2023/12/11 02:17:26;;;;;;;57.47;7.53;;;9.80;99.90;;;;;;5032243;28;20057;-51
2023/12/11 02:19:53;;;;;;;54.83;7.78;;;10.10;99.90;;;;;;5032654;28;20037;-51
2023/12/11 02:22:19;;;;;;;44.95;5.97;;;10.00;99.90;;;;;;5032664;28;20535;-53
2023/12/11 02:24:50;;;;;;;39.95;6.28;;;10.40;99.90;;;;;;5032391;28;20057;-53
2023/12/11 02:27:16;;;;;;;51.28;6.82;;;9.90;99.90;;;;;;5032925;28;20575;-53
2023/12/11 02:29:42;;;;;;;49.53;6.47;;;10.40;99.90;;;;;;5032770;28;20064;-55
2023/12/11 02:32:08;;;;;;;55.97;6.20;;;10.20;99.90;;;;;;5032911;28;20076;-51
2023/12/11 02:34:33;;;;;;;45.35;5.80;;;10.30;99.90;;;;;;5032210;28;20029;-51
2023/12/11 02:36:59;;;;;;;51.75;7.15;;;10.00;99.90;;;;;;5032860;28;20033;-55
2023/12/11 02:39:25;;;;;;;55.92;6.75;;;10.00;99.90;;;;;;5032293;28;20041;-51
2023/12/11 02:41:50;;;;;;;55.03;7.57;;;10.10;99.90;;;;;;5031450;28;20151;-53
2023/12/11 02:44:16;;;;;;;44.70;5.72;;;10.40;99.90;;;;;;5032299;28;20049;-54
2023/12/11 02:46:42;;;;;;;53.58;5.90;;;10.20;99.90;;;;;;5031413;28;20068;-55
2023/12/11 02:49:07;;;;;;;47.63;6.60;;;10.30;99.90;;;;;;5030781;28;20037;-53
2023/12/11 02:51:33;;;;;;;50.60;6.50;;;10.40;99.90;;;;;;5031831;28;21097;-53
2023/12/11 02:53:59;;;;;;;50.22;6.18;;;10.40;99.90;;;;;;5031905;28;20030;-52
2023/12/11 02:56:24;;;;;;;59.50;7.53;;;10.60;99.90;;;;;;5032462;28;20077;-53
2023/12/11 02:58:50;;;;;;;54.83;7.25;;;10.40;99.90;;;;;;5030751;28;20060;-51
2023/12/11 03:01:16;;;;;;;52.47;6.95;;;10.40;99.90;;;;;;5031035;28;20392;-49
2023/12/11 03:03:41;;;;;;;44.22;6.35;;;10.50;99.90;;;;;;5032086;28;20056;-51
2023/12/11 03:06:16;;;;;;;54.97;7.07;;;10.60;99.90;;;;;;5032048;28;20061;-50
2023/12/11 03:08:42;;;;;;;48.88;6.50;;;10.20;99.90;;;;;;5029739;28;20057;-54
2023/12/11 03:11:09;;;;;;;62.15;7.35;;;10.60;99.90;;;;;;5032348;28;20038;-53
2023/12/11 03:13:35;;;;;;;49.55;6.93;;;10.50;99.90;;;;;;5032036;28;20082;-52
2023/12/11 03:16:01;;;;;;;56.58;7.43;;;10.60;99.90;;;;;;5031453;28;20096;-53
2023/12/11 03:18:26;;;;;;;45.78;6.70;;;10.50;99.90;;;;;;5031296;28;20167;-52
2023/12/11 03:20:52;;;;;;;34.30;5.70;;;10.60;99.90;;;;;;5031549;28;20052;-54
2023/12/11 03:23:18;;;;;;;47.60;5.85;;;10.40;99.90;;;;;;5031788;28;20041;-56
2023/12/11 03:25:43;;;;;;;44.20;6.15;;;10.50;99.90;;;;;;5031670;28;20496;-53
2023/12/11 03:28:09;;;;;;;43.67;6.88;;;10.70;99.90;;;;;;5031838;28;20034;-54
2023/12/11 03:30:35;;;;;;;56.65;7.32;;;10.40;99.90;;;;;;5031702;28;20037;-54
2023/12/11 03:33:01;;;;;;;49.50;5.70;;;10.10;99.90;;;;;;5031820;28;20037;-56
2023/12/11 03:35:26;;;;;;;56.95;6.15;;;10.60;99.90;;;;;;5030782;28;20124;-50
2023/12/11 03:37:52;;;;;;;46.25;5.65;;;10.70;99.90;;;;;;5028748;28;20704;-53
2023/12/11 03:40:18;;;;;;;37.85;6.60;;;10.10;99.90;;;;;;5030262;28;20038;-52
2023/12/11 03:42:43;;;;;;;47.30;8.43;;;10.50;99.90;;;;;;5031082;28;20467;-53
2023/12/11 03:45:09;;;;;;;39.90;5.88;;;10.60;99.90;;;;;;5030810;28;20046;-54
2023/12/11 03:47:35;;;;;;;41.35;4.72;;;10.60;99.90;;;;;;5031374;28;20029;-52
2023/12/11 03:50:00;;;;;;;47.55;5.50;;;10.10;99.90;;;;;;5031395;28;20481;-53
2023/12/11 03:52:26;;;;;;;37.08;4.72;;;10.20;99.90;;;;;;5031381;28;20116;-51
2023/12/11 03:54:52;;;;;;;35.05;5.25;;;10.20;99.90;;;;;;5031748;28;20469;-49
2023/12/11 03:57:18;;;;;;;33.10;5.25;;;10.40;99.90;;;;;;5031120;28;20045;-52
2023/12/11 03:59:43;;;;;;;39.08;6.00;;;10.40;99.90;;;;;;5031268;28;20071;-53
2023/12/11 04:02:09;;;;;;;38.25;5.28;;;10.00;99.90;;;;;;5031161;28;20094;-53
2023/12/11 04:04:35;;;;;;;42.92;5.55;;;10.30;99.90;;;;;;5029955;28;20037;-54
2023/12/11 04:07:00;;;;;;;43.20;5.07;;;10.10;99.90;;;;;;5029503;28;20033;-55
2023/12/11 04:09:27;;;;;;;43.38;4.85;;;10.10;99.90;;;;;;5030552;28;20060;-56
2023/12/11 04:11:52;;;;;;;54.97;6.20;;;10.10;99.90;;;;;;5031038;28;20040;-56
2023/12/11 04:14:18;;;;;;;34.83;4.68;;;10.00;99.90;;;;;;5031163;28;20473;-53
2023/12/11 04:16:44;;;;;;;37.83;5.45;;;10.40;99.90;;;;;;5030556;28;20061;-49
2023/12/11 04:19:11;;;;;;;34.58;5.38;;;10.60;99.90;;;;;;5030912;28;20052;-54
2023/12/11 04:21:37;;;;;;;37.78;4.93;;;10.60;99.90;;;;;;5030672;28;20044;-54
2023/12/11 04:24:03;;;;;;;44.88;6.25;;;10.60;99.90;;;;;;5030778;28;20033;-55
2023/12/11 04:26:29;;;;;;;43.38;5.35;;;10.60;99.90;;;;;;5030600;28;20037;-53
2023/12/11 04:28:55;;;;;;;51.03;5.63;;;10.50;99.90;;;;;;5031154;28;20445;-52
2023/12/11 04:31:23;;;;;;;47.08;5.68;;;10.60;99.90;;;;;;5030445;28;20029;-53
2023/12/11 04:33:49;;;;;;;42.88;5.50;;;10.40;99.90;;;;;;5030694;28;20045;-55
2023/12/11 04:36:15;;;;;;;46.08;5.43;;;10.50;99.90;;;;;;5030638;28;20033;-54
2023/12/11 04:38:41;;;;;;;45.67;5.88;;;10.50;99.90;;;;;;5030936;28;20404;-53
2023/12/11 04:41:06;;;;;;;47.50;6.05;;;10.20;99.90;;;;;;5030908;28;20053;-52
2023/12/11 04:43:35;;;;;;;44.72;5.55;;;10.10;99.90;;;;;;5030486;28;20042;-53
2023/12/11 04:46:01;;;;;;;40.45;5.85;;;9.90;99.90;;;;;;5030026;28;20362;-54
2023/12/11 04:48:27;;;;;;;50.90;5.75;;;10.40;99.90;;;;;;5030775;28;20041;-50
2023/12/11 04:50:53;;;;;;;35.13;4.70;;;10.30;99.90;;;;;;5030491;28;20037;-52
2023/12/11 04:53:19;;;;;;;39.92;4.50;;;10.40;99.90;;;;;;5030958;28;20037;-54
2023/12/11 04:55:44;;;;;;;36.53;5.38;;;10.10;99.90;;;;;;5030775;28;20037;-53
2023/12/11 04:58:10;;;;;;;47.63;6.10;;;10.10;99.90;;;;;;5030339;28;20095;-51
2023/12/11 05:00:36;;;;;;;48.88;5.82;;;9.90;99.90;;;;;;5029720;28;20038;-50
2023/12/11 05:03:01;;;;;;;51.08;6.95;;;10.50;99.90;;;;;;5030451;28;20037;-52
2023/12/11 05:05:27;;;;;;;43.10;5.53;;;10.20;99.90;;;;;;5032880;28;20045;-54
2023/12/11 05:07:53;;;;;;;45.08;5.32;;;10.10;99.90;;;;;;5034400;28;20529;-51
2023/12/11 05:10:18;;;;;;;29.92;3.85;;;10.60;99.90;;;;;;5034125;28;20056;-53
2023/12/11 05:12:44;;;;;;;33.90;4.82;;;9.90;99.90;;;;;;5034428;28;20112;-53
2023/12/11 05:15:10;;;;;;;44.03;5.72;;;9.90;99.90;;;;;;5033803;28;20048;-52
2023/12/11 05:17:36;;;;;;;46.97;5.93;;;9.90;99.90;;;;;;5034120;28;20477;-53
2023/12/11 05:20:01;;;;;;;43.63;4.95;;;10.10;99.90;;;;;;5033300;28;20049;-54
2023/12/11 05:22:27;;;;;;;43.95;4.95;;;10.00;99.90;;;;;;5032586;28;20037;-52
2023/12/11 05:24:53;;;;;;;49.47;6.22;;;10.00;99.90;;;;;;5033752;28;20034;-50
2023/12/11 05:27:18;;;;;;;45.45;4.82;;;10.00;99.90;;;;;;5033781;28;20115;-51
2023/12/11 05:29:44;;;;;;;45.70;5.68;;;9.90;99.90;;;;;;5034153;28;20040;-52
2023/12/11 05:32:10;;;;;;;39.05;4.95;;;9.90;99.90;;;;;;5033949;28;20037;-50
2023/12/11 05:34:36;;;;;;;38.50;4.38;;;9.90;99.90;;;;;;5033817;28;20072;-49
2023/12/11 05:37:02;;;;;;;47.83;9.13;;;9.90;99.90;;;;;;5033837;28;20484;-53
2023/12/11 05:39:27;;;;;;;37.50;4.70;;;10.30;99.90;;;;;;5033037;28;20099;-49
2023/12/11 05:41:53;;;;;;;30.30;5.13;;;9.90;99.90;;;;;;5031469;28;20041;-51
2023/12/11 05:44:19;;;;;;;39.63;5.55;;;9.80;99.90;;;;;;5033782;28;20049;-55
2023/12/11 05:46:44;;;;;;;32.15;4.88;;;10.10;99.90;;;;;;5032841;28;20041;-51
2023/12/11 05:49:10;;;;;;;38.00;5.28;;;9.90;99.90;;;;;;5033701;28;20045;-49
2023/12/11 05:51:36;;;;;;;39.03;4.75;;;10.20;99.90;;;;;;5033590;28;20030;-50
2023/12/11 05:54:02;;;;;;;38.65;4.65;;;10.50;99.90;;;;;;5033749;28;20079;-54
2023/12/11 05:56:30;;;;;;;33.35;5.55;;;10.10;99.90;;;;;;5033160;28;20037;-50
2023/12/11 05:58:56;;;;;;;48.38;5.22;;;10.40;99.90;;;;;;5033678;28;20037;-52
2023/12/11 06:01:21;;;;;;;36.42;4.93;;;10.50;99.90;;;;;;5032988;28;20037;-51
2023/12/11 06:03:47;;;;;;;45.55;6.13;;;9.90;99.90;;;;;;5033509;28;20041;-52
2023/12/11 06:06:16;;;;;;;38.33;4.75;;;9.90;99.90;;;;;;5033238;28;20037;-50
2023/12/11 06:08:43;;;;;;;47.75;5.57;;;10.30;99.90;;;;;;5033122;28;20116;-50
2023/12/11 06:11:09;;;;;;;47.13;5.53;;;9.90;99.90;;;;;;5033164;28;20036;-49
2023/12/11 06:13:35;;;;;;;48.78;5.32;;;9.90;99.90;;;;;;5033292;28;20212;-47
2023/12/11 06:16:01;;;;;;;38.58;5.00;;;10.00;99.90;;;;;;5032216;28;20136;-49
2023/12/11 06:18:26;;;;;;;35.75;4.32;;;10.40;99.90;;;;;;5032503;28;20715;-52
2023/12/11 06:20:52;;;;;;;31.98;4.53;;;9.90;99.90;;;;;;5033009;28;20056;-53
2023/12/11 06:23:18;;;;;;;39.45;5.47;;;10.10;99.90;;;;;;5031281;28;20037;-49
2023/12/11 06:25:44;;;;;;;53.22;5.80;;;10.30;99.90;;;;;;5032932;28;20029;-53
2023/12/11 06:28:09;;;;;;;35.47;5.50;;;10.30;99.90;;;;;;5032806;28;20045;-52
2023/12/11 06:30:35;;;;;;;39.47;7.13;;;10.30;99.90;;;;;;5031881;28;20547;-51
2023/12/11 06:33:01;;;;;;;29.73;4.00;;;9.90;99.90;;;;;;5014611;28;20080;-51
2023/12/11 06:35:26;;;;;;;30.02;3.90;;;10.40;99.90;;;;;;5032145;28;20500;-53
2023/12/11 06:37:52;;;;;;;39.58;4.90;;;10.00;99.90;;;;;;5030823;28;20038;-53
2023/12/11 06:40:18;;;;;;;32.50;4.93;;;9.90;99.90;;;;;;5031213;28;20053;-50
2023/12/11 06:42:43;;;;;;;36.00;4.78;;;10.30;99.90;;;;;;5032470;28;20472;-52
2023/12/11 06:45:10;;;;;;;31.77;4.75;;;9.90;99.90;;;;;;5032145;28;20048;-50
2023/12/11 06:47:37;;;;;;;43.40;4.32;;;9.90;99.90;;;;;;5031257;28;20532;-51
2023/12/11 06:50:03;;;;;;;32.55;3.67;;;9.90;99.90;;;;;;5032324;28;20120;-54
2023/12/11 06:52:29;;;;;;;43.75;4.65;;;9.80;99.90;;;;;;5032133;28;20041;-51
2023/12/11 06:54:55;;;;;;;34.65;4.20;;;9.90;99.90;;;;;;5033167;28;20044;-54
2023/12/11 06:57:21;;;;;;;38.75;4.93;;;9.80;99.90;;;;;;5031829;28;20129;-53
2023/12/11 06:59:47;;;;;;;44.42;5.25;;;10.00;99.90;;;;;;5030529;28;20084;-54
2023/12/11 07:02:13;;;;;;;36.58;4.30;;;10.00;99.90;;;;;;5031395;28;20036;-52
2023/12/11 07:04:41;;;;;;;32.72;4.97;;;10.10;99.90;;;;;;5030439;28;20041;-51
2023/12/11 07:07:07;;;;;;;38.72;4.78;;;9.70;99.90;;;;;;5029555;28;20048;-52
2023/12/11 07:09:33;;;;;;;35.55;4.50;;;10.10;99.90;;;;;;5031133;28;20033;-53
2023/12/11 07:11:59;;;;;;;37.75;4.30;;;10.00;99.90;;;;;;5031711;28;20045;-52
2023/12/11 07:14:25;;;;;;;31.67;4.10;;;10.30;99.90;;;;;;5030047;28;20089;-51
2023/12/11 07:16:51;;;;;;;34.33;3.97;;;10.30;99.90;;;;;;5029922;28;20485;-55
2023/12/11 07:19:19;;;;;;;34.88;4.32;;;9.60;99.90;;;;;;5030090;28;20045;-54
2023/12/11 07:21:45;;;;;;;33.47;4.47;;;9.70;99.90;;;;;;5030045;28;20037;-53
2023/12/11 07:24:11;;;;;;;26.13;3.53;;;10.20;99.90;;;;;;5031288;28;20496;-55
2023/12/11 07:26:37;;;;;;;23.65;3.97;;;9.70;99.90;;;;;;5031061;28;20030;-51
2023/12/11 07:29:04;;;;;;;27.63;3.55;;;10.40;99.90;;;;;;5031233;28;20061;-53
2023/12/11 07:31:30;;;;;;;28.38;3.85;;;10.30;99.90;;;;;;5031228;28;20156;-50
2023/12/11 07:33:56;;;;;;;27.58;3.90;;;9.60;99.90;;;;;;5031014;28;20048;-49
2023/12/11 07:36:22;;;;;;;25.95;3.92;;;9.80;99.90;;;;;;5031145;28;20045;-56
2023/12/11 07:38:49;;;;;;;27.27;4.40;;;9.80;99.90;;;;;;5030798;28;20037;-52
2023/12/11 07:41:20;;;;;;;29.60;3.90;;;10.10;99.90;;;;;;5031386;28;20052;-53
2023/12/11 07:43:46;;;;;;;21.10;3.78;;;9.80;99.90;;;;;;5030202;28;20401;-54
2023/12/11 07:46:16;;;;;;;23.15;3.53;;;10.00;99.90;;;;;;5029186;28;20029;-56
2023/12/11 07:48:42;;;;;;;23.38;3.80;;;10.40;99.90;;;;;;5030793;28;20052;-54
2023/12/11 07:51:25;;;;;;;20.60;2.83;;;9.60;99.90;;;;;;5029365;28;20090;-53
2023/12/11 07:53:52;;;;;;;22.15;4.63;;;9.90;99.90;;;;;;5030109;28;20037;-51
2023/12/11 07:56:22;;;;;;;19.15;2.75;;;9.90;99.90;;;;;;5030879;28;20052;-50
2023/12/11 07:58:49;;;;;;;17.20;2.65;;;10.00;99.90;;;;;;5030618;28;20107;-50
2023/12/11 08:01:15;;;;;;;22.25;3.10;;;9.60;99.90;;;;;;5031125;28;20034;-52
2023/12/11 08:03:41;;;;;;;20.58;3.25;;;9.80;99.90;;;;;;5031275;28;20128;-52
2023/12/11 08:06:10;;;;;;;21.20;2.63;;;9.60;99.90;;;;;;5010569;28;20045;-53
2023/12/11 08:08:40;;;;;;;16.48;2.83;;;10.30;99.90;;;;;;5008889;28;20529;-52
2023/12/11 08:11:28;;;;;;;19.58;2.50;;;10.40;99.90;;;;;;5010195;28;20044;-53
2023/12/11 08:13:54;;;;;;;18.55;2.50;;;9.90;99.90;;;;;;5017206;28;20142;-51
2023/12/11 08:16:20;;;;;;;17.88;2.35;;;9.70;99.90;;;;;;5010942;28;20423;-55
2023/12/11 08:18:48;;;;;;;20.05;2.75;;;10.30;99.90;;;;;;5009772;28;20548;-53
2023/12/11 08:21:16;;;;;;;17.13;2.90;;;9.80;99.90;;;;;;5008909;28;20045;-54
2023/12/11 08:23:43;;;;;;;21.85;3.25;;;9.80;99.90;;;;;;5010160;28;20497;-55
2023/12/11 08:26:10;;;;;;;19.35;3.42;;;10.40;99.90;;;;;;5012353;28;20034;-52
2023/12/11 08:28:36;;;;;;;23.67;3.75;;;9.80;99.90;;;;;;5011286;28;20033;-52
2023/12/11 08:31:03;;;;;;;16.58;3.53;;;10.30;99.90;;;;;;5009995;28;20508;-54
2023/12/11 08:33:29;;;;;;;22.23;4.05;;;10.10;99.90;;;;;;5008379;28;20381;-52
2023/12/11 08:35:55;;;;;;;26.45;3.53;;;9.70;99.90;;;;;;5010879;28;20176;-49
2023/12/11 08:38:22;;;;;;;26.60;3.97;;;9.60;99.90;;;;;;5010375;28;20124;-51
2023/12/11 08:40:48;;;;;;;28.38;3.42;;;9.60;99.90;;;;;;5013824;28;20038;-53
2023/12/11 08:43:13;;;;;;;18.40;2.88;;;9.70;99.90;;;;;;5013356;28;20033;-56
2023/12/11 08:45:40;;;;;;;26.80;3.75;;;9.50;99.90;;;;;;5014908;28;20042;-54
2023/12/11 08:48:05;;;;;;;24.98;2.97;;;10.00;99.90;;;;;;5015494;28;20108;-56
2023/12/11 08:50:32;;;;;;;27.60;3.47;;;10.00;99.90;;;;;;5016178;28;20120;-54
2023/12/11 08:53:00;;;;;;;24.08;4.40;;;9.60;99.90;;;;;;5014423;28;20041;-52
2023/12/11 08:55:25;;;;;;;29.55;3.65;;;9.50;99.90;;;;;;5014069;28;20555;-53
2023/12/11 08:57:51;;;;;;;26.33;3.75;;;9.60;99.90;;;;;;5014424;28;20073;-53
2023/12/11 09:00:17;;;;;;;24.20;3.45;;;10.30;99.90;;;;;;5014377;28;20041;-52
2023/12/11 09:02:43;;;;;;;30.33;4.03;;;10.20;99.90;;;;;;5013928;28;20037;-53
2023/12/11 09:05:09;;;;;;;24.10;3.72;;;9.70;99.90;;;;;;5011461;28;20076;-54
2023/12/11 09:07:37;;;;;;;24.38;3.72;;;10.10;99.90;;;;;;5013120;28;20076;-51
2023/12/11 09:10:04;;;;;;;31.27;3.72;;;9.70;99.90;;;;;;5015220;28;20034;-54
2023/12/11 09:12:30;;;;;;;28.30;3.90;;;9.90;99.90;;;;;;5022555;28;20128;-55
2023/12/11 09:14:56;;;;;;;23.55;2.95;;;10.20;99.90;;;;;;5014944;28;20048;-54
2023/12/11 09:17:22;;;;;;;20.42;2.53;;;9.60;99.90;;;;;;5014160;28;20410;-52
2023/12/11 09:19:47;;;;;;;16.73;2.47;;;10.40;99.90;;;;;;5012487;28;20049;-53
2023/12/11 09:22:14;;;;;;;14.25;2.38;;;9.60;99.90;;;;;;5013755;28;20494;-54
2023/12/11 09:24:40;;;;;;;24.35;3.42;;;10.40;99.90;;;;;;5017079;28;20393;-51
2023/12/11 09:27:07;;;;;;;20.60;3.00;;;9.60;99.90;;;;;;5015172;28;20025;-53
2023/12/11 09:29:33;;;;;;;27.33;2.90;;;10.40;99.90;;;;;;5015062;28;20121;-53
2023/12/11 09:31:59;;;;;;;27.13;3.33;;;10.10;99.90;;;;;;5015512;28;20033;-53
2023/12/11 09:34:25;;;;;;;18.58;2.30;;;10.30;99.90;;;;;;5018405;28;20073;-56
2023/12/11 09:36:51;;;;;;;18.45;2.38;;;10.20;99.90;;;;;;5016894;28;20438;-54
2023/12/11 09:39:16;;;;;;;11.85;2.03;;;9.70;99.90;;;;;;5013492;28;20041;-55
2023/12/11 09:41:44;;;;;;;19.25;2.47;;;9.60;99.90;;;;;;5013297;28;20094;-55
2023/12/11 09:44:10;;;;;;;18.05;2.30;;;9.70;99.90;;;;;;5014321;28;20053;-55
2023/12/11 09:47:09;;;;;;;22.05;3.33;;;9.90;99.90;;;;;;5014426;28;20079;-56
2023/12/11 09:49:35;;;;;;;23.38;2.65;;;9.70;99.90;;;;;;5028899;28;20067;-57
2023/12/11 09:52:01;;;;;;;34.30;2.75;;;10.00;99.90;;;;;;5018686;28;20390;-55
2023/12/11 09:54:27;;;;;;;30.50;3.10;;;9.80;99.90;;;;;;5014286;28;20538;-56
2023/12/11 09:56:54;;;;;;;28.75;3.08;;;9.80;99.90;;;;;;5015211;28;20041;-52
2023/12/11 09:59:20;;;;;;;31.02;3.55;;;10.40;99.90;;;;;;5013028;28;20120;-54
2023/12/11 10:01:48;;;;;;;24.75;2.72;;;10.40;99.90;;;;;;5012091;28;20517;-55
2023/12/11 10:04:13;;;;;;;33.88;3.17;;;10.10;99.90;;;;;;5013263;28;20115;-54
2023/12/11 10:06:40;;;;;;;27.00;3.10;;;9.60;99.90;;;;;;5018764;28;20038;-53
2023/12/11 10:09:05;;;;;;;21.77;3.35;;;10.00;99.90;;;;;;5015907;28;20068;-54
2023/12/11 10:11:31;;;;;;;30.85;3.42;;;10.30;99.90;;;;;;5012747;28;20026;-51
2023/12/11 10:14:11;;;;;;;26.55;3.17;;;10.30;99.90;;;;;;5013140;28;20429;-54
2023/12/11 10:16:37;;;;;;;28.17;3.20;;;9.90;99.90;;;;;;5012472;28;20034;-56
2023/12/11 10:19:03;;;;;;;21.27;3.53;;;10.30;99.90;;;;;;5014224;28;20072;-53
2023/12/11 10:21:40;;;;;;;29.20;2.95;;;9.50;99.90;;;;;;5015306;28;20077;-53
2023/12/11 10:24:14;;;;;;;23.40;2.78;;;9.70;99.90;;;;;;4996526;28;20046;-53
2023/12/11 10:26:52;;;;;;;34.17;4.00;;;10.30;99.90;;;;;;5012026;28;20416;-55
2023/12/11 10:29:19;;;;;;;18.90;2.72;;;9.50;99.90;;;;;;5015009;28;20556;-51
2023/12/11 10:31:45;;;;;;;18.80;2.58;;;9.50;99.90;;;;;;5013322;28;20053;-53
2023/12/11 10:34:11;;;;;;;21.92;2.63;;;10.20;99.90;;;;;;5013228;28;20120;-52
2023/12/11 10:36:48;;;;;;;20.13;2.20;;;9.70;99.90;;;;;;5014981;28;20504;-51
2023/12/11 10:39:14;;;;;;;28.10;2.90;;;10.10;99.90;;;;;;5013720;28;20041;-52
2023/12/11 10:41:39;;;;;;;24.17;3.47;;;10.40;99.90;;;;;;5013537;28;20056;-52
2023/12/11 10:44:05;;;;;;;21.70;2.85;;;10.40;99.90;;;;;;5014842;28;20392;-49
2023/12/11 10:46:31;;;;;;;15.23;2.20;;;10.10;99.90;;;;;;5009166;28;20037;-53
2023/12/11 10:49:00;;;;;;;19.48;2.67;;;10.40;99.90;;;;;;5025972;28;20041;-53
2023/12/11 10:51:26;;;;;;;15.55;2.80;;;10.50;99.90;;;;;;5030095;28;20111;-54
2023/12/11 10:53:52;;;;;;;21.55;2.97;;;9.80;99.90;;;;;;5029152;28;20092;-49
2023/12/11 10:56:18;;;;;;;16.30;2.30;;;10.50;99.90;;;;;;5031838;28;20077;-52
2023/12/11 10:58:44;;;;;;;18.83;2.88;;;10.10;99.90;;;;;;5032221;28;20500;-52
2023/12/11 11:01:12;;;;;;;18.80;3.42;;;10.20;99.90;;;;;;5032161;28;20121;-51
2023/12/11 11:03:38;;;;;;;25.35;3.00;;;9.80;99.90;;;;;;5028689;28;20418;-53
2023/12/11 11:06:06;;;;;;;23.63;4.35;;;10.40;99.90;;;;;;5029786;28;20081;-53
2023/12/11 11:08:48;;;;;;;24.40;3.47;;;9.90;99.90;;;;;;5031897;28;20069;-48
2023/12/11 11:11:22;;;;;;;20.30;4.05;;;10.30;99.90;;;;;;5030407;28;20049;-50
2023/12/11 11:14:03;;;;;;;;;;;10.20;99.90;;;;;;5032173;28;20044;-52
2023/12/11 11:16:53;;;;;;;16.10;3.08;;;9.70;99.90;;;;;;5030358;28;19924;-50
2023/12/11 11:19:19;;;;;;;25.30;3.45;;;9.70;99.90;;;;;;5029873;28;20512;-51
2023/12/11 11:22:00;;;;;;;18.95;3.08;;;9.60;99.90;;;;;;5031884;28;20056;-50
2023/12/11 11:24:29;;;;;;;21.73;3.58;;;9.70;99.90;;;;;;5025875;28;20407;-50
2023/12/11 11:26:56;;;;;;;18.08;2.90;;;10.30;99.90;;;;;;5024228;28;20063;-53
2023/12/11 11:29:42;;;;;;;25.55;3.10;;;10.00;99.90;;;;;;5025415;28;20071;-52
2023/12/11 11:32:08;;;;;;;16.40;2.83;;;10.00;99.90;;;;;;5026536;28;20045;-50
2023/12/11 11:34:40;;;;;;;12.10;1.80;;;10.00;99.90;;;;;;5026084;28;20049;-52
2023/12/11 11:37:11;;;;;;;17.58;2.42;;;10.30;99.90;;;;;;5025912;28;20125;-48
2023/12/11 11:39:59;;;;;;;11.77;1.80;;;10.10;99.90;;;;;;5026101;28;20076;-48
2023/12/11 11:42:30;;;;;;;14.32;1.77;;;9.90;99.90;;;;;;5027076;28;20107;-52
2023/12/11 11:44:57;;;;;;;13.65;2.00;;;10.00;99.90;;;;;;5023577;28;20129;-49
2023/12/11 11:47:24;;;;;;;14.18;1.85;;;10.30;99.90;;;;;;5018254;28;20046;-49
2023/12/11 11:49:50;;;;;;;17.73;2.25;;;10.20;99.90;;;;;;5024009;28;20034;-51
2023/12/11 11:52:23;;;;;;;21.92;2.83;;;10.30;99.90;;;;;;5022687;28;20087;-48
2023/12/11 11:54:50;;;;;;;15.05;2.25;;;10.30;99.90;;;;;;5021034;28;20124;-53
2023/12/11 11:57:16;;;;;;;15.35;1.83;;;10.20;99.90;;;;;;5025146;28;20551;-51
2023/12/11 11:59:45;;;;;;;16.42;2.10;;;10.10;99.90;;;;;;5024216;28;20037;-51
2023/12/11 12:02:10;;;;;;;15.25;1.70;;;10.00;99.90;;;;;;5020681;28;20084;-54
2023/12/11 12:04:36;;;;;;;8.50;1.30;;;10.00;99.90;;;;;;5019148;28;20045;-50
2023/12/11 12:07:04;;;;;;;9.20;1.38;;;10.10;99.90;;;;;;5020660;28;20033;-49
2023/12/11 12:09:32;;;;;;;10.13;1.40;;;10.10;99.90;;;;;;5024470;28;20065;-52
2023/12/11 12:11:58;;;;;;;10.82;1.30;;;10.00;99.90;;;;;;5021457;28;20037;-50
2023/12/11 12:14:25;;;;;;;9.82;1.40;;;9.70;99.90;;;;;;5031536;28;20092;-48
2023/12/11 12:16:52;;;;;;;16.95;1.75;;;9.90;99.90;;;;;;5023783;28;20065;-51
2023/12/11 12:19:32;;;;;;;6.68;0.93;;;9.80;99.90;;;;;;5021554;28;20053;-50
2023/12/11 12:21:58;;;;;;;8.20;1.50;;;9.70;99.90;;;;;;5020471;28;20037;-49
2023/12/11 12:24:25;;;;;;;10.13;1.30;;;10.00;99.90;;;;;;5025170;28;21094;-50
2023/12/11 12:26:58;;;;;;;7.82;1.20;;;9.90;99.90;;;;;;5023595;28;20025;-53
2023/12/11 12:29:33;;;;;;;11.88;1.20;;;10.10;99.90;;;;;;5023405;28;20117;-52
2023/12/11 12:31:59;;;;;;;8.65;0.90;;;10.30;99.90;;;;;;5025468;28;20054;-52
2023/12/11 12:34:27;;;;;;;8.95;1.27;;;10.40;99.90;;;;;;5024623;28;20049;-51
2023/12/11 12:36:59;;;;;;;8.00;1.10;;;10.70;99.90;;;;;;5023138;28;20046;-53
2023/12/11 12:39:25;;;;;;;4.03;0.70;;;10.60;99.90;;;;;;5021304;28;20029;-49